CBL8 weather

Bala Airport
Bala, Ontario, Canada

Public forecast

Using degrees Celsius for public forecast. Weather courtesy of forecast.io.

Closest aviation weather report (METAR) to Bala Airport

Closest report is Muskoka Airport, 13.8 nm (25.5 km) ESE. Retrieved 2019/12/16 12:00 UTC (36 minutes ago):

CYQA 161200Z AUTO 12004KT 9SM -SN FEW025 OVC038 M09/M11 A3013 RMK SLP226

Closest aviation forecast (TAF) to Bala Airport

Closest forecast is Muskoka Airport, 13.8 nm (25.5 km) ESE. Retrieved 2019/12/16 13:39 UTC (0 seconds ago):

TAF CYQA 161238Z 1613/1701 VRB03KT P6SM BKN040 TEMPO 1613/1701 5SM -SN BKN020 BECMG 1613/1615 21010KT RMK FCST BASED ON AUTO OBS NXT FCST BY 162000Z